sensor_id;sensor_type;location;lat;lon;timestamp;P1;durP1;ratioP1;P2;durP2;ratioP2
2476;SDS011;1249;51.270;6.756;2023-03-01T00:01:16;66.93;;;62.30;;
2476;SDS011;1249;51.270;6.756;2023-03-01T00:03:44;62.63;;;58.63;;
2476;SDS011;1249;51.270;6.756;2023-03-01T00:06:11;76.27;;;71.43;;
2476;SDS011;1249;51.270;6.756;2023-03-01T00:08:38;62.60;;;58.97;;
2476;SDS011;1249;51.270;6.756;2023-03-01T00:11:05;67.27;;;63.73;;
2476;SDS011;1249;51.270;6.756;2023-03-01T00:13:35;79.07;;;74.07;;
2476;SDS011;1249;51.270;6.756;2023-03-01T00:16:02;87.57;;;81.83;;
2476;SDS011;1249;51.270;6.756;2023-03-01T00:18:30;51.80;;;48.37;;
2476;SDS011;1249;51.270;6.756;2023-03-01T00:20:57;55.00;;;52.43;;
2476;SDS011;1249;51.270;6.756;2023-03-01T00:23:24;72.03;;;67.20;;
2476;SDS011;1249;51.270;6.756;2023-03-01T00:25:51;62.63;;;58.77;;
2476;SDS011;1249;51.270;6.756;2023-03-01T00:28:19;57.47;;;53.17;;
2476;SDS011;1249;51.270;6.756;2023-03-01T00:30:47;87.43;;;82.53;;
2476;SDS011;1249;51.270;6.756;2023-03-01T00:33:14;83.47;;;79.30;;
2476;SDS011;1249;51.270;6.756;2023-03-01T00:35:41;64.27;;;59.97;;
2476;SDS011;1249;51.270;6.756;2023-03-01T00:38:08;64.87;;;60.77;;
2476;SDS011;1249;51.270;6.756;2023-03-01T00:40:35;61.13;;;57.77;;
2476;SDS011;1249;51.270;6.756;2023-03-01T00:43:02;64.20;;;60.03;;
2476;SDS011;1249;51.270;6.756;2023-03-01T00:45:29;55.63;;;52.50;;
2476;SDS011;1249;51.270;6.756;2023-03-01T00:47:58;75.40;;;71.47;;
2476;SDS011;1249;51.270;6.756;2023-03-01T00:50:25;46.00;;;43.33;;
2476;SDS011;1249;51.270;6.756;2023-03-01T00:52:52;76.60;;;72.17;;
2476;SDS011;1249;51.270;6.756;2023-03-01T00:55:19;88.27;;;82.70;;
2476;SDS011;1249;51.270;6.756;2023-03-01T00:57:46;80.00;;;76.03;;
2476;SDS011;1249;51.270;6.756;2023-03-01T01:00:13;80.60;;;75.03;;
2476;SDS011;1249;51.270;6.756;2023-03-01T01:02:40;71.10;;;65.97;;
2476;SDS011;1249;51.270;6.756;2023-03-01T01:05:08;74.63;;;70.07;;
2476;SDS011;1249;51.270;6.756;2023-03-01T01:07:35;96.20;;;90.27;;
2476;SDS011;1249;51.270;6.756;2023-03-01T01:10:02;89.00;;;83.70;;
2476;SDS011;1249;51.270;6.756;2023-03-01T01:12:29;98.17;;;93.37;;
2476;SDS011;1249;51.270;6.756;2023-03-01T01:14:56;56.37;;;52.47;;
2476;SDS011;1249;51.270;6.756;2023-03-01T01:17:23;65.40;;;61.27;;
2476;SDS011;1249;51.270;6.756;2023-03-01T01:19:50;45.40;;;42.77;;
2476;SDS011;1249;51.270;6.756;2023-03-01T01:22:18;66.07;;;61.77;;
2476;SDS011;1249;51.270;6.756;2023-03-01T01:24:44;69.17;;;64.40;;
2476;SDS011;1249;51.270;6.756;2023-03-01T01:27:11;72.67;;;68.30;;
2476;SDS011;1249;51.270;6.756;2023-03-01T01:29:38;76.40;;;71.43;;
2476;SDS011;1249;51.270;6.756;2023-03-01T01:32:06;83.40;;;79.10;;
2476;SDS011;1249;51.270;6.756;2023-03-01T01:34:33;55.50;;;51.67;;
2476;SDS011;1249;51.270;6.756;2023-03-01T01:37:00;81.17;;;76.07;;
2476;SDS011;1249;51.270;6.756;2023-03-01T01:39:29;53.90;;;50.57;;
2476;SDS011;1249;51.270;6.756;2023-03-01T01:41:56;94.00;;;88.23;;
2476;SDS011;1249;51.270;6.756;2023-03-01T01:44:23;84.40;;;79.33;;
2476;SDS011;1249;51.270;6.756;2023-03-01T01:46:52;93.63;;;88.00;;
2476;SDS011;1249;51.270;6.756;2023-03-01T01:49:23;81.93;;;76.87;;
2476;SDS011;1249;51.270;6.756;2023-03-01T01:51:55;81.17;;;77.03;;
2476;SDS011;1249;51.270;6.756;2023-03-01T01:54:27;71.80;;;67.70;;
2476;SDS011;1249;51.270;6.756;2023-03-01T01:57:00;79.03;;;73.97;;
2476;SDS011;1249;51.270;6.756;2023-03-01T01:59:30;66.50;;;62.83;;
2476;SDS011;1249;51.270;6.756;2023-03-01T02:01:58;110.77;;;104.23;;
2476;SDS011;1249;51.270;6.756;2023-03-01T02:04:27;90.67;;;84.90;;
2476;SDS011;1249;51.270;6.756;2023-03-01T02:06:55;90.47;;;85.03;;
2476;SDS011;1249;51.270;6.756;2023-03-01T02:09:27;74.70;;;68.87;;
2476;SDS011;1249;51.270;6.756;2023-03-01T02:11:56;57.13;;;53.83;;
2476;SDS011;1249;51.270;6.756;2023-03-01T02:14:24;82.40;;;76.77;;
2476;SDS011;1249;51.270;6.756;2023-03-01T02:16:51;65.13;;;60.83;;
2476;SDS011;1249;51.270;6.756;2023-03-01T02:19:22;88.87;;;83.13;;
2476;SDS011;1249;51.270;6.756;2023-03-01T02:21:59;91.77;;;87.30;;
2476;SDS011;1249;51.270;6.756;2023-03-01T02:24:39;88.57;;;83.30;;
2476;SDS011;1249;51.270;6.756;2023-03-01T02:27:17;73.00;;;68.53;;
2476;SDS011;1249;51.270;6.756;2023-03-01T02:29:51;95.83;;;89.10;;
2476;SDS011;1249;51.270;6.756;2023-03-01T02:32:18;74.53;;;70.53;;
2476;SDS011;1249;51.270;6.756;2023-03-01T02:34:50;86.53;;;81.27;;
2476;SDS011;1249;51.270;6.756;2023-03-01T02:37:18;73.03;;;68.50;;
2476;SDS011;1249;51.270;6.756;2023-03-01T02:39:50;70.20;;;65.53;;
2476;SDS011;1249;51.270;6.756;2023-03-01T02:42:23;92.30;;;86.57;;
2476;SDS011;1249;51.270;6.756;2023-03-01T02:44:55;71.83;;;67.53;;
2476;SDS011;1249;51.270;6.756;2023-03-01T02:47:22;68.53;;;64.83;;
2476;SDS011;1249;51.270;6.756;2023-03-01T02:49:49;96.10;;;90.47;;
2476;SDS011;1249;51.270;6.756;2023-03-01T02:52:20;86.07;;;79.80;;
2476;SDS011;1249;51.270;6.756;2023-03-01T02:55:00;85.13;;;79.87;;
2476;SDS011;1249;51.270;6.756;2023-03-01T02:57:31;69.13;;;64.47;;
2476;SDS011;1249;51.270;6.756;2023-03-01T03:00:03;85.70;;;80.07;;
2476;SDS011;1249;51.270;6.756;2023-03-01T03:02:33;76.60;;;71.27;;
2476;SDS011;1249;51.270;6.756;2023-03-01T03:05:05;95.30;;;89.53;;
2476;SDS011;1249;51.270;6.756;2023-03-01T03:07:34;77.17;;;72.73;;
2476;SDS011;1249;51.270;6.756;2023-03-01T03:10:02;74.17;;;69.20;;
2476;SDS011;1249;51.270;6.756;2023-03-01T03:12:30;56.50;;;53.10;;
2476;SDS011;1249;51.270;6.756;2023-03-01T03:14:57;102.23;;;95.63;;
2476;SDS011;1249;51.270;6.756;2023-03-01T03:17:25;79.03;;;74.23;;
2476;SDS011;1249;51.270;6.756;2023-03-01T03:19:52;78.50;;;72.87;;
2476;SDS011;1249;51.270;6.756;2023-03-01T03:22:19;80.30;;;74.97;;
2476;SDS011;1249;51.270;6.756;2023-03-01T03:24:45;92.00;;;85.53;;
2476;SDS011;1249;51.270;6.756;2023-03-01T03:27:12;91.90;;;86.17;;
2476;SDS011;1249;51.270;6.756;2023-03-01T03:29:39;94.27;;;88.63;;
2476;SDS011;1249;51.270;6.756;2023-03-01T03:32:05;96.40;;;91.00;;
2476;SDS011;1249;51.270;6.756;2023-03-01T03:34:33;90.77;;;85.67;;
2476;SDS011;1249;51.270;6.756;2023-03-01T03:37:00;80.27;;;74.93;;
2476;SDS011;1249;51.270;6.756;2023-03-01T03:39:27;79.43;;;74.37;;
2476;SDS011;1249;51.270;6.756;2023-03-01T03:41:59;95.43;;;89.60;;
2476;SDS011;1249;51.270;6.756;2023-03-01T03:44:26;93.30;;;88.13;;
2476;SDS011;1249;51.270;6.756;2023-03-01T03:46:53;72.67;;;67.93;;
2476;SDS011;1249;51.270;6.756;2023-03-01T03:49:20;73.83;;;68.90;;
2476;SDS011;1249;51.270;6.756;2023-03-01T03:51:48;91.13;;;86.47;;
2476;SDS011;1249;51.270;6.756;2023-03-01T03:54:14;88.63;;;83.20;;
2476;SDS011;1249;51.270;6.756;2023-03-01T03:56:42;97.30;;;92.27;;
2476;SDS011;1249;51.270;6.756;2023-03-01T03:59:09;88.60;;;83.03;;
2476;SDS011;1249;51.270;6.756;2023-03-01T04:01:36;82.80;;;76.70;;
2476;SDS011;1249;51.270;6.756;2023-03-01T04:04:03;99.73;;;92.50;;
2476;SDS011;1249;51.270;6.756;2023-03-01T04:06:30;80.20;;;75.20;;
2476;SDS011;1249;51.270;6.756;2023-03-01T04:08:58;65.50;;;61.80;;
2476;SDS011;1249;51.270;6.756;2023-03-01T04:11:28;89.50;;;83.97;;
2476;SDS011;1249;51.270;6.756;2023-03-01T04:13:55;53.93;;;50.07;;
2476;SDS011;1249;51.270;6.756;2023-03-01T04:16:24;74.37;;;69.07;;
2476;SDS011;1249;51.270;6.756;2023-03-01T04:18:51;82.33;;;77.53;;
2476;SDS011;1249;51.270;6.756;2023-03-01T04:21:19;88.23;;;83.13;;
2476;SDS011;1249;51.270;6.756;2023-03-01T04:23:46;101.93;;;95.63;;
2476;SDS011;1249;51.270;6.756;2023-03-01T04:26:14;106.33;;;100.50;;
2476;SDS011;1249;51.270;6.756;2023-03-01T04:28:41;122.40;;;115.27;;
2476;SDS011;1249;51.270;6.756;2023-03-01T04:31:11;80.43;;;76.27;;
2476;SDS011;1249;51.270;6.756;2023-03-01T04:33:41;82.67;;;77.40;;
2476;SDS011;1249;51.270;6.756;2023-03-01T04:36:09;100.67;;;93.77;;
2476;SDS011;1249;51.270;6.756;2023-03-01T04:38:38;79.03;;;73.20;;
2476;SDS011;1249;51.270;6.756;2023-03-01T04:41:04;89.00;;;82.57;;
2476;SDS011;1249;51.270;6.756;2023-03-01T04:43:33;124.17;;;116.97;;
2476;SDS011;1249;51.270;6.756;2023-03-01T04:46:01;76.10;;;70.77;;
2476;SDS011;1249;51.270;6.756;2023-03-01T04:48:29;78.33;;;73.27;;
2476;SDS011;1249;51.270;6.756;2023-03-01T04:50:56;95.30;;;89.03;;
2476;SDS011;1249;51.270;6.756;2023-03-01T04:53:24;86.23;;;80.87;;
2476;SDS011;1249;51.270;6.756;2023-03-01T04:55:51;87.43;;;82.73;;
2476;SDS011;1249;51.270;6.756;2023-03-01T04:58:17;102.73;;;96.27;;
2476;SDS011;1249;51.270;6.756;2023-03-01T05:00:45;94.60;;;88.77;;
2476;SDS011;1249;51.270;6.756;2023-03-01T05:03:12;109.10;;;101.97;;
2476;SDS011;1249;51.270;6.756;2023-03-01T05:05:43;87.67;;;82.20;;
2476;SDS011;1249;51.270;6.756;2023-03-01T05:08:11;93.37;;;87.60;;
2476;SDS011;1249;51.270;6.756;2023-03-01T05:10:42;78.57;;;73.90;;
2476;SDS011;1249;51.270;6.756;2023-03-01T05:13:11;108.77;;;102.87;;
2476;SDS011;1249;51.270;6.756;2023-03-01T05:15:40;100.70;;;95.27;;
2476;SDS011;1249;51.270;6.756;2023-03-01T05:18:08;123.83;;;116.00;;
2476;SDS011;1249;51.270;6.756;2023-03-01T05:20:36;113.73;;;106.77;;
2476;SDS011;1249;51.270;6.756;2023-03-01T05:23:04;89.80;;;85.37;;
2476;SDS011;1249;51.270;6.756;2023-03-01T05:25:32;78.77;;;74.73;;
2476;SDS011;1249;51.270;6.756;2023-03-01T05:27:59;73.37;;;68.50;;
2476;SDS011;1249;51.270;6.756;2023-03-01T05:30:29;86.63;;;80.57;;
2476;SDS011;1249;51.270;6.756;2023-03-01T05:32:57;123.30;;;116.13;;
2476;SDS011;1249;51.270;6.756;2023-03-01T05:35:25;85.67;;;79.80;;
2476;SDS011;1249;51.270;6.756;2023-03-01T05:37:52;121.23;;;114.30;;
2476;SDS011;1249;51.270;6.756;2023-03-01T05:40:20;106.57;;;97.73;;
2476;SDS011;1249;51.270;6.756;2023-03-01T05:42:49;74.70;;;68.10;;
2476;SDS011;1249;51.270;6.756;2023-03-01T05:45:18;85.67;;;80.80;;
2476;SDS011;1249;51.270;6.756;2023-03-01T05:47:45;76.53;;;71.93;;
2476;SDS011;1249;51.270;6.756;2023-03-01T05:50:13;116.63;;;109.87;;
2476;SDS011;1249;51.270;6.756;2023-03-01T05:52:45;103.83;;;97.60;;
2476;SDS011;1249;51.270;6.756;2023-03-01T05:55:13;79.30;;;73.77;;
2476;SDS011;1249;51.270;6.756;2023-03-01T05:57:40;79.90;;;75.37;;
2476;SDS011;1249;51.270;6.756;2023-03-01T06:00:07;107.63;;;102.20;;
2476;SDS011;1249;51.270;6.756;2023-03-01T06:02:35;103.50;;;97.60;;
2476;SDS011;1249;51.270;6.756;2023-03-01T06:05:02;103.23;;;96.80;;
2476;SDS011;1249;51.270;6.756;2023-03-01T06:07:30;90.90;;;85.43;;
2476;SDS011;1249;51.270;6.756;2023-03-01T06:09:58;108.03;;;100.13;;
2476;SDS011;1249;51.270;6.756;2023-03-01T06:12:25;106.10;;;99.50;;
2476;SDS011;1249;51.270;6.756;2023-03-01T06:14:52;90.13;;;84.43;;
2476;SDS011;1249;51.270;6.756;2023-03-01T06:17:18;102.53;;;97.30;;
2476;SDS011;1249;51.270;6.756;2023-03-01T06:19:46;94.60;;;88.20;;
2476;SDS011;1249;51.270;6.756;2023-03-01T06:22:13;82.70;;;76.80;;
2476;SDS011;1249;51.270;6.756;2023-03-01T06:24:39;105.37;;;99.07;;
2476;SDS011;1249;51.270;6.756;2023-03-01T06:27:07;86.63;;;81.53;;
2476;SDS011;1249;51.270;6.756;2023-03-01T06:29:34;80.20;;;75.37;;
2476;SDS011;1249;51.270;6.756;2023-03-01T06:32:01;94.97;;;88.27;;
2476;SDS011;1249;51.270;6.756;2023-03-01T06:34:29;99.23;;;93.23;;
2476;SDS011;1249;51.270;6.756;2023-03-01T06:36:55;118.00;;;110.90;;
2476;SDS011;1249;51.270;6.756;2023-03-01T06:39:22;91.67;;;87.27;;
2476;SDS011;1249;51.270;6.756;2023-03-01T06:41:49;77.53;;;72.30;;
2476;SDS011;1249;51.270;6.756;2023-03-01T06:44:17;66.60;;;61.70;;
2476;SDS011;1249;51.270;6.756;2023-03-01T06:46:44;84.60;;;79.50;;
2476;SDS011;1249;51.270;6.756;2023-03-01T06:49:11;97.83;;;90.90;;
2476;SDS011;1249;51.270;6.756;2023-03-01T06:51:37;60.43;;;56.57;;
2476;SDS011;1249;51.270;6.756;2023-03-01T06:54:04;98.53;;;92.93;;
2476;SDS011;1249;51.270;6.756;2023-03-01T06:56:31;103.80;;;97.60;;
2476;SDS011;1249;51.270;6.756;2023-03-01T06:58:58;100.67;;;95.30;;
2476;SDS011;1249;51.270;6.756;2023-03-01T07:01:26;107.60;;;101.00;;
2476;SDS011;1249;51.270;6.756;2023-03-01T07:03:53;93.40;;;87.87;;
2476;SDS011;1249;51.270;6.756;2023-03-01T07:06:19;82.97;;;78.17;;
2476;SDS011;1249;51.270;6.756;2023-03-01T07:08:46;91.40;;;86.80;;
2476;SDS011;1249;51.270;6.756;2023-03-01T07:11:13;98.37;;;92.10;;
2476;SDS011;1249;51.270;6.756;2023-03-01T07:13:41;93.07;;;87.47;;
2476;SDS011;1249;51.270;6.756;2023-03-01T07:16:08;98.00;;;91.57;;
2476;SDS011;1249;51.270;6.756;2023-03-01T07:18:36;103.57;;;96.60;;
2476;SDS011;1249;51.270;6.756;2023-03-01T07:21:06;82.43;;;78.20;;
2476;SDS011;1249;51.270;6.756;2023-03-01T07:23:34;59.60;;;55.10;;
2476;SDS011;1249;51.270;6.756;2023-03-01T07:26:01;132.77;;;125.90;;
2476;SDS011;1249;51.270;6.756;2023-03-01T07:28:28;107.40;;;100.37;;
2476;SDS011;1249;51.270;6.756;2023-03-01T07:30:55;114.70;;;107.23;;
2476;SDS011;1249;51.270;6.756;2023-03-01T07:33:27;99.60;;;93.27;;
2476;SDS011;1249;51.270;6.756;2023-03-01T07:35:59;96.30;;;88.90;;
2476;SDS011;1249;51.270;6.756;2023-03-01T07:38:27;96.50;;;91.33;;
2476;SDS011;1249;51.270;6.756;2023-03-01T07:40:57;87.83;;;82.80;;
2476;SDS011;1249;51.270;6.756;2023-03-01T07:43:25;82.43;;;76.23;;
2476;SDS011;1249;51.270;6.756;2023-03-01T07:45:52;73.33;;;67.43;;
2476;SDS011;1249;51.270;6.756;2023-03-01T07:48:19;100.20;;;93.93;;
2476;SDS011;1249;51.270;6.756;2023-03-01T07:50:45;67.33;;;63.07;;
2476;SDS011;1249;51.270;6.756;2023-03-01T07:53:13;69.67;;;65.37;;
2476;SDS011;1249;51.270;6.756;2023-03-01T07:55:40;93.30;;;88.23;;
2476;SDS011;1249;51.270;6.756;2023-03-01T07:58:07;81.87;;;76.73;;
2476;SDS011;1249;51.270;6.756;2023-03-01T08:00:34;56.80;;;53.17;;
2476;SDS011;1249;51.270;6.756;2023-03-01T08:03:01;85.43;;;80.43;;
2476;SDS011;1249;51.270;6.756;2023-03-01T08:05:28;104.90;;;98.70;;
2476;SDS011;1249;51.270;6.756;2023-03-01T08:07:54;75.30;;;70.53;;
2476;SDS011;1249;51.270;6.756;2023-03-01T08:10:22;100.63;;;94.43;;
2476;SDS011;1249;51.270;6.756;2023-03-01T08:12:50;68.60;;;63.90;;
2476;SDS011;1249;51.270;6.756;2023-03-01T08:15:18;98.63;;;92.27;;
2476;SDS011;1249;51.270;6.756;2023-03-01T08:17:45;67.43;;;61.87;;
2476;SDS011;1249;51.270;6.756;2023-03-01T08:20:14;84.10;;;78.57;;
2476;SDS011;1249;51.270;6.756;2023-03-01T08:22:41;63.77;;;58.90;;
2476;SDS011;1249;51.270;6.756;2023-03-01T08:25:08;69.67;;;65.03;;
2476;SDS011;1249;51.270;6.756;2023-03-01T08:27:37;75.57;;;70.37;;
2476;SDS011;1249;51.270;6.756;2023-03-01T08:30:04;86.07;;;80.60;;
2476;SDS011;1249;51.270;6.756;2023-03-01T08:32:34;97.13;;;90.60;;
2476;SDS011;1249;51.270;6.756;2023-03-01T08:35:02;74.40;;;69.33;;
2476;SDS011;1249;51.270;6.756;2023-03-01T08:37:29;71.67;;;67.10;;
2476;SDS011;1249;51.270;6.756;2023-03-01T08:39:58;90.87;;;86.00;;
2476;SDS011;1249;51.270;6.756;2023-03-01T08:42:25;66.10;;;62.33;;
2476;SDS011;1249;51.270;6.756;2023-03-01T08:44:53;56.70;;;52.93;;
2476;SDS011;1249;51.270;6.756;2023-03-01T08:47:20;66.97;;;62.20;;
2476;SDS011;1249;51.270;6.756;2023-03-01T08:49:46;61.50;;;57.43;;
2476;SDS011;1249;51.270;6.756;2023-03-01T08:52:15;54.93;;;52.17;;
2476;SDS011;1249;51.270;6.756;2023-03-01T08:54:42;64.97;;;60.67;;
2476;SDS011;1249;51.270;6.756;2023-03-01T08:57:09;73.23;;;69.03;;
2476;SDS011;1249;51.270;6.756;2023-03-01T08:59:36;79.73;;;74.47;;
2476;SDS011;1249;51.270;6.756;2023-03-01T09:02:04;79.97;;;75.40;;
2476;SDS011;1249;51.270;6.756;2023-03-01T09:04:31;75.13;;;69.60;;
2476;SDS011;1249;51.270;6.756;2023-03-01T09:06:58;59.80;;;55.90;;
2476;SDS011;1249;51.270;6.756;2023-03-01T09:09:25;82.40;;;77.23;;
2476;SDS011;1249;51.270;6.756;2023-03-01T09:11:52;79.93;;;74.90;;
2476;SDS011;1249;51.270;6.756;2023-03-01T09:14:18;63.37;;;59.83;;
2476;SDS011;1249;51.270;6.756;2023-03-01T09:16:45;84.53;;;79.47;;
2476;SDS011;1249;51.270;6.756;2023-03-01T09:19:13;87.67;;;81.50;;
2476;SDS011;1249;51.270;6.756;2023-03-01T09:21:40;81.60;;;77.07;;
2476;SDS011;1249;51.270;6.756;2023-03-01T09:24:18;62.60;;;58.57;;
2476;SDS011;1249;51.270;6.756;2023-03-01T09:26:46;103.90;;;99.00;;
2476;SDS011;1249;51.270;6.756;2023-03-01T09:29:13;69.57;;;64.73;;
2476;SDS011;1249;51.270;6.756;2023-03-01T09:31:41;65.90;;;61.63;;
2476;SDS011;1249;51.270;6.756;2023-03-01T09:34:08;58.07;;;54.67;;
2476;SDS011;1249;51.270;6.756;2023-03-01T09:36:36;67.57;;;63.57;;
2476;SDS011;1249;51.270;6.756;2023-03-01T09:39:04;61.33;;;56.93;;
2476;SDS011;1249;51.270;6.756;2023-03-01T09:41:42;49.30;;;45.27;;
2476;SDS011;1249;51.270;6.756;2023-03-01T09:44:13;90.13;;;84.40;;
2476;SDS011;1249;51.270;6.756;2023-03-01T09:46:46;69.47;;;64.93;;
2476;SDS011;1249;51.270;6.756;2023-03-01T09:49:14;68.47;;;64.67;;
2476;SDS011;1249;51.270;6.756;2023-03-01T09:51:47;48.67;;;45.53;;
2476;SDS011;1249;51.270;6.756;2023-03-01T09:54:21;66.83;;;62.30;;
2476;SDS011;1249;51.270;6.756;2023-03-01T09:56:53;48.07;;;45.00;;
2476;SDS011;1249;51.270;6.756;2023-03-01T09:59:45;58.80;;;54.67;;
2476;SDS011;1249;51.270;6.756;2023-03-01T10:02:30;52.50;;;48.37;;
2476;SDS011;1249;51.270;6.756;2023-03-01T10:05:05;63.93;;;59.30;;
2476;SDS011;1249;51.270;6.756;2023-03-01T10:07:44;48.13;;;44.77;;
2476;SDS011;1249;51.270;6.756;2023-03-01T10:10:21;67.00;;;62.43;;
2476;SDS011;1249;51.270;6.756;2023-03-01T10:12:53;58.57;;;55.03;;
2476;SDS011;1249;51.270;6.756;2023-03-01T10:15:22;37.83;;;35.27;;
2476;SDS011;1249;51.270;6.756;2023-03-01T10:18:01;58.13;;;54.47;;
2476;SDS011;1249;51.270;6.756;2023-03-01T10:20:39;43.83;;;40.90;;
2476;SDS011;1249;51.270;6.756;2023-03-01T10:23:13;77.47;;;72.70;;
2476;SDS011;1249;51.270;6.756;2023-03-01T10:25:44;49.50;;;46.93;;
2476;SDS011;1249;51.270;6.756;2023-03-01T10:28:24;46.60;;;43.77;;
2476;SDS011;1249;51.270;6.756;2023-03-01T10:30:56;55.43;;;52.20;;
2476;SDS011;1249;51.270;6.756;2023-03-01T10:33:24;42.77;;;40.70;;
2476;SDS011;1249;51.270;6.756;2023-03-01T10:35:55;54.07;;;51.00;;
2476;SDS011;1249;51.270;6.756;2023-03-01T10:38:23;56.70;;;53.67;;
2476;SDS011;1249;51.270;6.756;2023-03-01T10:40:52;62.13;;;58.50;;
2476;SDS011;1249;51.270;6.756;2023-03-01T10:43:21;73.43;;;69.23;;
2476;SDS011;1249;51.270;6.756;2023-03-01T10:45:49;40.03;;;36.90;;
2476;SDS011;1249;51.270;6.756;2023-03-01T10:48:17;52.93;;;49.83;;
2476;SDS011;1249;51.270;6.756;2023-03-01T10:50:46;69.60;;;66.20;;
2476;SDS011;1249;51.270;6.756;2023-03-01T10:53:24;61.60;;;57.93;;
2476;SDS011;1249;51.270;6.756;2023-03-01T10:55:57;44.00;;;41.33;;
2476;SDS011;1249;51.270;6.756;2023-03-01T10:58:26;61.37;;;58.10;;
2476;SDS011;1249;51.270;6.756;2023-03-01T11:00:54;56.53;;;54.10;;
2476;SDS011;1249;51.270;6.756;2023-03-01T11:03:22;76.70;;;72.10;;
2476;SDS011;1249;51.270;6.756;2023-03-01T11:05:52;73.63;;;69.37;;
2476;SDS011;1249;51.270;6.756;2023-03-01T11:08:33;54.83;;;51.73;;
2476;SDS011;1249;51.270;6.756;2023-03-01T11:13:59;45.10;;;43.00;;
2476;SDS011;1249;51.270;6.756;2023-03-01T11:16:34;46.40;;;43.93;;
2476;SDS011;1249;51.270;6.756;2023-03-01T11:19:16;52.13;;;48.80;;
2476;SDS011;1249;51.270;6.756;2023-03-01T11:21:47;41.67;;;39.13;;
2476;SDS011;1249;51.270;6.756;2023-03-01T11:24:31;49.03;;;45.77;;
2476;SDS011;1249;51.270;6.756;2023-03-01T11:27:04;34.37;;;32.50;;
2476;SDS011;1249;51.270;6.756;2023-03-01T11:29:37;40.00;;;37.87;;
2476;SDS011;1249;51.270;6.756;2023-03-01T11:32:07;31.20;;;29.47;;
2476;SDS011;1249;51.270;6.756;2023-03-01T11:34:39;50.37;;;47.77;;
2476;SDS011;1249;51.270;6.756;2023-03-01T11:37:12;41.23;;;38.70;;
2476;SDS011;1249;51.270;6.756;2023-03-01T11:39:55;50.57;;;48.43;;
2476;SDS011;1249;51.270;6.756;2023-03-01T11:42:42;54.77;;;51.87;;
2476;SDS011;1249;51.270;6.756;2023-03-01T11:45:14;47.23;;;44.87;;
2476;SDS011;1249;51.270;6.756;2023-03-01T11:47:45;52.10;;;48.37;;
2476;SDS011;1249;51.270;6.756;2023-03-01T11:50:34;39.33;;;36.73;;
2476;SDS011;1249;51.270;6.756;2023-03-01T11:53:09;44.47;;;41.87;;
2476;SDS011;1249;51.270;6.756;2023-03-01T11:55:58;44.90;;;41.80;;
2476;SDS011;1249;51.270;6.756;2023-03-01T11:58:43;43.27;;;40.43;;
2476;SDS011;1249;51.270;6.756;2023-03-01T12:01:22;42.77;;;40.33;;
2476;SDS011;1249;51.270;6.756;2023-03-01T12:07:01;39.33;;;37.00;;
2476;SDS011;1249;51.270;6.756;2023-03-01T12:15:28;35.10;;;32.97;;
2476;SDS011;1249;51.270;6.756;2023-03-01T12:21:22;51.93;;;48.50;;
2476;SDS011;1249;51.270;6.756;2023-03-01T12:24:03;37.33;;;35.33;;
2476;SDS011;1249;51.270;6.756;2023-03-01T12:26:48;41.73;;;39.20;;
2476;SDS011;1249;51.270;6.756;2023-03-01T12:29:25;37.50;;;35.57;;
2476;SDS011;1249;51.270;6.756;2023-03-01T12:32:12;68.33;;;64.40;;
2476;SDS011;1249;51.270;6.756;2023-03-01T12:34:53;39.40;;;37.10;;
2476;SDS011;1249;51.270;6.756;2023-03-01T12:37:33;47.20;;;44.50;;
2476;SDS011;1249;51.270;6.756;2023-03-01T12:40:19;39.80;;;37.30;;
2476;SDS011;1249;51.270;6.756;2023-03-01T12:43:07;48.63;;;45.80;;
2476;SDS011;1249;51.270;6.756;2023-03-01T12:45:46;54.07;;;51.07;;
2476;SDS011;1249;51.270;6.756;2023-03-01T12:48:25;52.83;;;49.70;;
2476;SDS011;1249;51.270;6.756;2023-03-01T12:50:59;45.87;;;43.13;;
2476;SDS011;1249;51.270;6.756;2023-03-01T12:53:30;37.57;;;35.57;;
2476;SDS011;1249;51.270;6.756;2023-03-01T12:56:01;39.83;;;37.57;;
2476;SDS011;1249;51.270;6.756;2023-03-01T12:58:32;44.30;;;41.70;;
2476;SDS011;1249;51.270;6.756;2023-03-01T13:01:08;34.40;;;31.90;;
2476;SDS011;1249;51.270;6.756;2023-03-01T13:03:51;47.40;;;44.33;;
2476;SDS011;1249;51.270;6.756;2023-03-01T13:06:29;44.13;;;41.60;;
2476;SDS011;1249;51.270;6.756;2023-03-01T13:09:04;28.00;;;25.90;;
2476;SDS011;1249;51.270;6.756;2023-03-01T13:11:33;25.67;;;24.43;;
2476;SDS011;1249;51.270;6.756;2023-03-01T13:20:11;54.80;;;51.17;;
2476;SDS011;1249;51.270;6.756;2023-03-01T13:22:39;38.10;;;35.53;;
2476;SDS011;1249;51.270;6.756;2023-03-01T13:25:13;45.27;;;42.97;;
2476;SDS011;1249;51.270;6.756;2023-03-01T13:27:42;45.93;;;43.17;;
2476;SDS011;1249;51.270;6.756;2023-03-01T13:39:27;41.50;;;38.90;;
2476;SDS011;1249;51.270;6.756;2023-03-01T13:41:57;31.77;;;29.87;;
2476;SDS011;1249;51.270;6.756;2023-03-01T13:44:26;27.30;;;25.77;;
2476;SDS011;1249;51.270;6.756;2023-03-01T13:46:57;39.63;;;37.47;;
2476;SDS011;1249;51.270;6.756;2023-03-01T13:49:27;54.40;;;50.97;;
2476;SDS011;1249;51.270;6.756;2023-03-01T13:51:55;33.03;;;31.43;;
2476;SDS011;1249;51.270;6.756;2023-03-01T13:54:25;45.77;;;42.97;;
2476;SDS011;1249;51.270;6.756;2023-03-01T13:56:55;40.53;;;37.87;;
2476;SDS011;1249;51.270;6.756;2023-03-01T13:59:24;36.87;;;34.47;;
2476;SDS011;1249;51.270;6.756;2023-03-01T14:01:54;32.10;;;30.27;;
2476;SDS011;1249;51.270;6.756;2023-03-01T14:04:23;49.83;;;46.97;;
2476;SDS011;1249;51.270;6.756;2023-03-01T14:09:47;32.70;;;31.20;;
2476;SDS011;1249;51.270;6.756;2023-03-01T14:12:20;37.93;;;36.10;;
2476;SDS011;1249;51.270;6.756;2023-03-01T14:14:56;49.47;;;46.07;;
2476;SDS011;1249;51.270;6.756;2023-03-01T14:17:34;36.67;;;34.57;;
2476;SDS011;1249;51.270;6.756;2023-03-01T14:20:12;39.90;;;37.90;;
2476;SDS011;1249;51.270;6.756;2023-03-01T14:22:43;48.03;;;44.73;;
2476;SDS011;1249;51.270;6.756;2023-03-01T14:25:20;42.77;;;40.37;;
2476;SDS011;1249;51.270;6.756;2023-03-01T14:28:00;37.40;;;35.40;;
2476;SDS011;1249;51.270;6.756;2023-03-01T14:30:31;28.13;;;26.37;;
2476;SDS011;1249;51.270;6.756;2023-03-01T14:33:00;26.57;;;24.90;;
2476;SDS011;1249;51.270;6.756;2023-03-01T14:35:31;44.63;;;41.40;;
2476;SDS011;1249;51.270;6.756;2023-03-01T14:37:59;38.80;;;36.70;;
2476;SDS011;1249;51.270;6.756;2023-03-01T14:40:28;37.03;;;35.03;;
2476;SDS011;1249;51.270;6.756;2023-03-01T14:42:57;24.10;;;22.70;;
2476;SDS011;1249;51.270;6.756;2023-03-01T14:45:26;48.67;;;45.37;;
2476;SDS011;1249;51.270;6.756;2023-03-01T14:47:55;29.57;;;27.70;;
2476;SDS011;1249;51.270;6.756;2023-03-01T14:50:29;39.33;;;36.87;;
2476;SDS011;1249;51.270;6.756;2023-03-01T14:52:58;34.83;;;32.67;;
2476;SDS011;1249;51.270;6.756;2023-03-01T14:55:30;35.10;;;33.10;;
2476;SDS011;1249;51.270;6.756;2023-03-01T14:57:59;28.63;;;27.13;;
2476;SDS011;1249;51.270;6.756;2023-03-01T15:00:30;48.37;;;45.40;;
2476;SDS011;1249;51.270;6.756;2023-03-01T15:03:00;41.33;;;38.20;;
2476;SDS011;1249;51.270;6.756;2023-03-01T15:05:34;70.27;;;66.03;;
2476;SDS011;1249;51.270;6.756;2023-03-01T15:08:02;38.27;;;35.70;;
2476;SDS011;1249;51.270;6.756;2023-03-01T15:10:33;32.77;;;30.73;;
2476;SDS011;1249;51.270;6.756;2023-03-01T15:13:09;41.67;;;38.67;;
2476;SDS011;1249;51.270;6.756;2023-03-01T15:15:38;45.37;;;42.50;;
2476;SDS011;1249;51.270;6.756;2023-03-01T15:18:15;36.07;;;33.90;;
2476;SDS011;1249;51.270;6.756;2023-03-01T15:20:44;49.40;;;46.40;;
2476;SDS011;1249;51.270;6.756;2023-03-01T15:23:22;29.20;;;27.23;;
2476;SDS011;1249;51.270;6.756;2023-03-01T15:25:52;30.97;;;27.57;;
2476;SDS011;1249;51.270;6.756;2023-03-01T15:28:23;39.87;;;37.47;;
2476;SDS011;1249;51.270;6.756;2023-03-01T15:30:52;40.20;;;37.63;;
2476;SDS011;1249;51.270;6.756;2023-03-01T15:33:35;43.50;;;40.30;;
2476;SDS011;1249;51.270;6.756;2023-03-01T15:36:03;22.93;;;20.97;;